sensor_id;sensor_type;location;lat;lon;timestamp;P1;durP1;ratioP1;P2;durP2;ratioP2
8435;SDS011;4255;48.730;9.156;2022-08-11T00:01:10;5.03;;;3.53;;
8435;SDS011;4255;48.730;9.156;2022-08-11T00:03:42;2.80;;;2.70;;
8435;SDS011;4255;48.730;9.156;2022-08-11T00:06:10;3.00;;;2.70;;
8435;SDS011;4255;48.730;9.156;2022-08-11T00:08:38;3.87;;;2.90;;
8435;SDS011;4255;48.730;9.156;2022-08-11T00:11:05;3.13;;;2.90;;
8435;SDS011;4255;48.730;9.156;2022-08-11T00:13:37;3.00;;;2.80;;
8435;SDS011;4255;48.730;9.156;2022-08-11T00:16:10;3.50;;;3.20;;
8435;SDS011;4255;48.730;9.156;2022-08-11T00:18:48;4.23;;;3.10;;
8435;SDS011;4255;48.730;9.156;2022-08-11T00:21:16;4.50;;;3.23;;
8435;SDS011;4255;48.730;9.156;2022-08-11T00:23:45;3.10;;;2.80;;
8435;SDS011;4255;48.730;9.156;2022-08-11T00:26:16;5.03;;;3.30;;
8435;SDS011;4255;48.730;9.156;2022-08-11T00:28:43;3.53;;;3.13;;
8435;SDS011;4255;48.730;9.156;2022-08-11T00:34:11;3.27;;;3.03;;
8435;SDS011;4255;48.730;9.156;2022-08-11T00:36:44;3.30;;;3.10;;
8435;SDS011;4255;48.730;9.156;2022-08-11T00:39:17;3.23;;;3.03;;
8435;SDS011;4255;48.730;9.156;2022-08-11T00:44:57;3.40;;;3.20;;
8435;SDS011;4255;48.730;9.156;2022-08-11T00:50:24;3.23;;;3.03;;
8435;SDS011;4255;48.730;9.156;2022-08-11T01:01:58;9.23;;;4.37;;
8435;SDS011;4255;48.730;9.156;2022-08-11T01:04:55;4.17;;;3.50;;
8435;SDS011;4255;48.730;9.156;2022-08-11T01:13:18;4.90;;;3.70;;
8435;SDS011;4255;48.730;9.156;2022-08-11T01:16:39;3.50;;;3.30;;
8435;SDS011;4255;48.730;9.156;2022-08-11T01:31:19;3.70;;;3.43;;
8435;SDS011;4255;48.730;9.156;2022-08-11T01:43:08;3.13;;;2.93;;
8435;SDS011;4255;48.730;9.156;2022-08-11T01:46:38;5.70;;;3.70;;
8435;SDS011;4255;48.730;9.156;2022-08-11T02:10:22;6.80;;;3.27;;
8435;SDS011;4255;48.730;9.156;2022-08-11T02:13:19;6.50;;;3.93;;
8435;SDS011;4255;48.730;9.156;2022-08-11T02:19:07;3.73;;;3.43;;
8435;SDS011;4255;48.730;9.156;2022-08-11T02:22:34;5.07;;;4.20;;
8435;SDS011;4255;48.730;9.156;2022-08-11T02:26:06;4.37;;;3.97;;
8435;SDS011;4255;48.730;9.156;2022-08-11T02:37:17;3.73;;;3.50;;
8435;SDS011;4255;48.730;9.156;2022-08-11T02:42:34;4.40;;;3.53;;
8435;SDS011;4255;48.730;9.156;2022-08-11T02:50:40;4.07;;;3.47;;
8435;SDS011;4255;48.730;9.156;2022-08-11T02:53:21;6.20;;;3.20;;
8435;SDS011;4255;48.730;9.156;2022-08-11T02:59:17;3.97;;;3.57;;
8435;SDS011;4255;48.730;9.156;2022-08-11T03:10:31;5.63;;;3.60;;
8435;SDS011;4255;48.730;9.156;2022-08-11T03:16:33;4.50;;;4.10;;
8435;SDS011;4255;48.730;9.156;2022-08-11T03:22:01;5.33;;;4.30;;
8435;SDS011;4255;48.730;9.156;2022-08-11T03:27:32;4.40;;;4.10;;
8435;SDS011;4255;48.730;9.156;2022-08-11T03:30:05;5.87;;;4.53;;
8435;SDS011;4255;48.730;9.156;2022-08-11T03:35:44;4.87;;;4.57;;
8435;SDS011;4255;48.730;9.156;2022-08-11T03:38:18;5.47;;;4.20;;
8435;SDS011;4255;48.730;9.156;2022-08-11T03:41:04;5.80;;;4.50;;
8435;SDS011;4255;48.730;9.156;2022-08-11T03:47:13;4.60;;;4.20;;
8435;SDS011;4255;48.730;9.156;2022-08-11T03:55:30;4.30;;;4.00;;
8435;SDS011;4255;48.730;9.156;2022-08-11T04:21:09;6.50;;;6.00;;
8435;SDS011;4255;48.730;9.156;2022-08-11T04:27:06;5.87;;;5.37;;
8435;SDS011;4255;48.730;9.156;2022-08-11T04:35:33;6.23;;;5.60;;
8435;SDS011;4255;48.730;9.156;2022-08-11T04:48:05;5.20;;;4.80;;
8435;SDS011;4255;48.730;9.156;2022-08-11T04:57:03;6.03;;;5.40;;
8435;SDS011;4255;48.730;9.156;2022-08-11T05:11:14;12.13;;;5.00;;
8435;SDS011;4255;48.730;9.156;2022-08-11T05:14:17;5.97;;;5.37;;
8435;SDS011;4255;48.730;9.156;2022-08-11T05:17:12;5.10;;;4.60;;
8435;SDS011;4255;48.730;9.156;2022-08-11T05:19:58;7.10;;;4.70;;
8435;SDS011;4255;48.730;9.156;2022-08-11T05:22:46;5.40;;;4.90;;
8435;SDS011;4255;48.730;9.156;2022-08-11T05:25:33;5.60;;;4.40;;
8435;SDS011;4255;48.730;9.156;2022-08-11T05:28:28;9.17;;;6.80;;
8435;SDS011;4255;48.730;9.156;2022-08-11T05:31:18;8.20;;;5.37;;
8435;SDS011;4255;48.730;9.156;2022-08-11T05:34:14;5.80;;;5.27;;
8435;SDS011;4255;48.730;9.156;2022-08-11T05:42:54;5.40;;;4.90;;
8435;SDS011;4255;48.730;9.156;2022-08-11T05:45:41;5.70;;;5.20;;
8435;SDS011;4255;48.730;9.156;2022-08-11T05:48:33;8.20;;;5.63;;
8435;SDS011;4255;48.730;9.156;2022-08-11T05:51:19;7.20;;;4.73;;
8435;SDS011;4255;48.730;9.156;2022-08-11T05:54:06;5.67;;;5.17;;
8435;SDS011;4255;48.730;9.156;2022-08-11T05:56:53;4.90;;;4.50;;
8435;SDS011;4255;48.730;9.156;2022-08-11T05:59:24;5.60;;;4.80;;
8435;SDS011;4255;48.730;9.156;2022-08-11T06:01:52;5.53;;;5.03;;
8435;SDS011;4255;48.730;9.156;2022-08-11T06:04:24;5.23;;;4.47;;
8435;SDS011;4255;48.730;9.156;2022-08-11T06:06:56;5.23;;;4.60;;
8435;SDS011;4255;48.730;9.156;2022-08-11T06:12:05;5.47;;;4.43;;
8435;SDS011;4255;48.730;9.156;2022-08-11T06:14:32;4.40;;;3.90;;
8435;SDS011;4255;48.730;9.156;2022-08-11T06:17:00;8.83;;;5.33;;
8435;SDS011;4255;48.730;9.156;2022-08-11T06:19:33;4.97;;;4.50;;
8435;SDS011;4255;48.730;9.156;2022-08-11T06:22:04;4.90;;;4.50;;
8435;SDS011;4255;48.730;9.156;2022-08-11T06:24:32;6.67;;;4.80;;
8435;SDS011;4255;48.730;9.156;2022-08-11T06:27:00;5.20;;;4.37;;
8435;SDS011;4255;48.730;9.156;2022-08-11T06:29:27;6.30;;;5.70;;
8435;SDS011;4255;48.730;9.156;2022-08-11T06:31:56;5.30;;;4.90;;
8435;SDS011;4255;48.730;9.156;2022-08-11T06:34:32;5.37;;;4.90;;
8435;SDS011;4255;48.730;9.156;2022-08-11T06:37:14;5.03;;;4.63;;
8435;SDS011;4255;48.730;9.156;2022-08-11T06:39:56;4.30;;;4.00;;
8435;SDS011;4255;48.730;9.156;2022-08-11T06:42:35;5.97;;;5.07;;
8435;SDS011;4255;48.730;9.156;2022-08-11T06:47:58;7.17;;;4.47;;
8435;SDS011;4255;48.730;9.156;2022-08-11T06:50:25;9.97;;;4.80;;
8435;SDS011;4255;48.730;9.156;2022-08-11T06:53:11;5.70;;;5.10;;
8435;SDS011;4255;48.730;9.156;2022-08-11T06:55:42;6.53;;;4.30;;
8435;SDS011;4255;48.730;9.156;2022-08-11T06:58:32;8.73;;;4.67;;
8435;SDS011;4255;48.730;9.156;2022-08-11T07:01:33;4.80;;;4.40;;
8435;SDS011;4255;48.730;9.156;2022-08-11T07:04:22;9.63;;;4.80;;
8435;SDS011;4255;48.730;9.156;2022-08-11T07:07:00;9.23;;;5.23;;
8435;SDS011;4255;48.730;9.156;2022-08-11T07:12:58;4.83;;;4.43;;
8435;SDS011;4255;48.730;9.156;2022-08-11T07:15:44;5.67;;;4.83;;
8435;SDS011;4255;48.730;9.156;2022-08-11T07:18:22;5.67;;;4.50;;
8435;SDS011;4255;48.730;9.156;2022-08-11T07:21:14;5.07;;;4.53;;
8435;SDS011;4255;48.730;9.156;2022-08-11T07:24:06;7.80;;;5.17;;
8435;SDS011;4255;48.730;9.156;2022-08-11T07:26:56;5.40;;;5.00;;
8435;SDS011;4255;48.730;9.156;2022-08-11T07:29:41;5.23;;;4.70;;
8435;SDS011;4255;48.730;9.156;2022-08-11T07:32:18;4.90;;;4.50;;
8435;SDS011;4255;48.730;9.156;2022-08-11T07:34:57;5.20;;;4.80;;
8435;SDS011;4255;48.730;9.156;2022-08-11T07:37:33;6.30;;;4.40;;
8435;SDS011;4255;48.730;9.156;2022-08-11T07:40:00;5.00;;;4.23;;
8435;SDS011;4255;48.730;9.156;2022-08-11T07:42:28;7.43;;;4.60;;
8435;SDS011;4255;48.730;9.156;2022-08-11T07:44:56;5.80;;;5.20;;
8435;SDS011;4255;48.730;9.156;2022-08-11T07:47:42;4.90;;;3.97;;
8435;SDS011;4255;48.730;9.156;2022-08-11T07:50:28;8.07;;;4.63;;
8435;SDS011;4255;48.730;9.156;2022-08-11T07:53:12;4.47;;;4.13;;
8435;SDS011;4255;48.730;9.156;2022-08-11T07:55:40;4.30;;;4.00;;
8435;SDS011;4255;48.730;9.156;2022-08-11T07:58:07;4.00;;;3.70;;
8435;SDS011;4255;48.730;9.156;2022-08-11T08:00:53;4.67;;;4.23;;
8435;SDS011;4255;48.730;9.156;2022-08-11T08:03:39;7.97;;;4.13;;
8435;SDS011;4255;48.730;9.156;2022-08-11T08:06:25;4.47;;;4.17;;
8435;SDS011;4255;48.730;9.156;2022-08-11T08:09:11;6.50;;;4.23;;
8435;SDS011;4255;48.730;9.156;2022-08-11T08:11:56;4.20;;;3.90;;
8435;SDS011;4255;48.730;9.156;2022-08-11T08:14:43;8.50;;;4.17;;
8435;SDS011;4255;48.730;9.156;2022-08-11T08:17:28;4.73;;;4.10;;
8435;SDS011;4255;48.730;9.156;2022-08-11T08:20:15;4.80;;;4.40;;
8435;SDS011;4255;48.730;9.156;2022-08-11T08:22:49;5.57;;;3.90;;
8435;SDS011;4255;48.730;9.156;2022-08-11T08:25:20;4.73;;;4.43;;
8435;SDS011;4255;48.730;9.156;2022-08-11T08:27:54;4.47;;;4.07;;
8435;SDS011;4255;48.730;9.156;2022-08-11T08:30:20;5.60;;;4.30;;
8435;SDS011;4255;48.730;9.156;2022-08-11T08:33:07;6.07;;;4.30;;
8435;SDS011;4255;48.730;9.156;2022-08-11T08:35:34;5.20;;;4.70;;
8435;SDS011;4255;48.730;9.156;2022-08-11T08:38:01;7.23;;;3.80;;
8435;SDS011;4255;48.730;9.156;2022-08-11T08:40:27;4.33;;;4.03;;
8435;SDS011;4255;48.730;9.156;2022-08-11T08:43:03;4.23;;;3.83;;
8435;SDS011;4255;48.730;9.156;2022-08-11T08:45:35;4.20;;;3.83;;
8435;SDS011;4255;48.730;9.156;2022-08-11T08:48:10;4.30;;;3.80;;
8435;SDS011;4255;48.730;9.156;2022-08-11T08:50:45;4.30;;;3.90;;
8435;SDS011;4255;48.730;9.156;2022-08-11T08:53:34;4.13;;;3.83;;
8435;SDS011;4255;48.730;9.156;2022-08-11T08:56:05;5.40;;;3.80;;
8435;SDS011;4255;48.730;9.156;2022-08-11T08:58:33;6.63;;;3.70;;
8435;SDS011;4255;48.730;9.156;2022-08-11T09:01:01;3.73;;;3.43;;
8435;SDS011;4255;48.730;9.156;2022-08-11T09:03:27;3.90;;;3.60;;
8435;SDS011;4255;48.730;9.156;2022-08-11T09:05:54;4.33;;;3.90;;
8435;SDS011;4255;48.730;9.156;2022-08-11T09:08:20;6.00;;;4.17;;
8435;SDS011;4255;48.730;9.156;2022-08-11T09:10:47;3.70;;;3.40;;
8435;SDS011;4255;48.730;9.156;2022-08-11T09:13:34;5.13;;;3.50;;
8435;SDS011;4255;48.730;9.156;2022-08-11T09:16:03;3.93;;;3.73;;
8435;SDS011;4255;48.730;9.156;2022-08-11T09:18:30;4.00;;;3.70;;
8435;SDS011;4255;48.730;9.156;2022-08-11T09:20:56;4.10;;;3.80;;
8435;SDS011;4255;48.730;9.156;2022-08-11T09:23:22;3.77;;;3.47;;
8435;SDS011;4255;48.730;9.156;2022-08-11T09:26:08;3.93;;;3.50;;
8435;SDS011;4255;48.730;9.156;2022-08-11T09:28:53;4.33;;;3.57;;
8435;SDS011;4255;48.730;9.156;2022-08-11T09:31:19;4.03;;;3.63;;
8435;SDS011;4255;48.730;9.156;2022-08-11T09:33:46;3.90;;;3.40;;
8435;SDS011;4255;48.730;9.156;2022-08-11T09:36:16;4.07;;;3.67;;
8435;SDS011;4255;48.730;9.156;2022-08-11T09:39:02;3.03;;;2.83;;
8435;SDS011;4255;48.730;9.156;2022-08-11T09:41:48;3.77;;;3.47;;
8435;SDS011;4255;48.730;9.156;2022-08-11T09:44:14;5.70;;;3.90;;
8435;SDS011;4255;48.730;9.156;2022-08-11T09:46:59;3.80;;;3.60;;
8435;SDS011;4255;48.730;9.156;2022-08-11T09:49:25;3.27;;;2.90;;
8435;SDS011;4255;48.730;9.156;2022-08-11T09:51:53;3.63;;;3.23;;
8435;SDS011;4255;48.730;9.156;2022-08-11T09:54:19;3.80;;;3.60;;
8435;SDS011;4255;48.730;9.156;2022-08-11T09:56:47;4.13;;;3.70;;
8435;SDS011;4255;48.730;9.156;2022-08-11T09:59:34;5.53;;;3.57;;
8435;SDS011;4255;48.730;9.156;2022-08-11T10:02:01;3.67;;;3.37;;
8435;SDS011;4255;48.730;9.156;2022-08-11T10:04:39;3.63;;;3.30;;
8435;SDS011;4255;48.730;9.156;2022-08-11T10:07:06;3.60;;;3.27;;
8435;SDS011;4255;48.730;9.156;2022-08-11T10:12:14;3.93;;;3.63;;
8435;SDS011;4255;48.730;9.156;2022-08-11T10:14:47;3.70;;;3.40;;
8435;SDS011;4255;48.730;9.156;2022-08-11T10:17:34;3.97;;;3.40;;
8435;SDS011;4255;48.730;9.156;2022-08-11T10:20:03;3.70;;;3.50;;
8435;SDS011;4255;48.730;9.156;2022-08-11T10:22:32;3.50;;;3.27;;
8435;SDS011;4255;48.730;9.156;2022-08-11T10:25:18;3.80;;;3.50;;
8435;SDS011;4255;48.730;9.156;2022-08-11T10:28:03;3.73;;;3.50;;
8435;SDS011;4255;48.730;9.156;2022-08-11T10:30:32;4.10;;;3.80;;
8435;SDS011;4255;48.730;9.156;2022-08-11T10:33:17;3.27;;;2.97;;
8435;SDS011;4255;48.730;9.156;2022-08-11T10:36:02;4.90;;;3.47;;
8435;SDS011;4255;48.730;9.156;2022-08-11T10:38:30;3.57;;;3.37;;
8435;SDS011;4255;48.730;9.156;2022-08-11T10:40:57;3.40;;;3.20;;
8435;SDS011;4255;48.730;9.156;2022-08-11T10:43:42;3.27;;;3.07;;
8435;SDS011;4255;48.730;9.156;2022-08-11T10:46:09;3.10;;;2.90;;
8435;SDS011;4255;48.730;9.156;2022-08-11T10:48:54;3.20;;;3.00;;
8435;SDS011;4255;48.730;9.156;2022-08-11T10:51:23;4.10;;;2.97;;
8435;SDS011;4255;48.730;9.156;2022-08-11T10:54:08;5.23;;;3.63;;
8435;SDS011;4255;48.730;9.156;2022-08-11T10:56:54;4.80;;;3.53;;
8435;SDS011;4255;48.730;9.156;2022-08-11T10:59:38;4.80;;;3.30;;
8435;SDS011;4255;48.730;9.156;2022-08-11T11:02:06;9.03;;;3.07;;
8435;SDS011;4255;48.730;9.156;2022-08-11T11:07:37;4.67;;;3.93;;
8435;SDS011;4255;48.730;9.156;2022-08-11T11:10:12;3.73;;;3.13;;
8435;SDS011;4255;48.730;9.156;2022-08-11T11:12:39;3.33;;;2.93;;
8435;SDS011;4255;48.730;9.156;2022-08-11T11:15:28;3.37;;;2.93;;
8435;SDS011;4255;48.730;9.156;2022-08-11T11:20:50;3.63;;;3.23;;
8435;SDS011;4255;48.730;9.156;2022-08-11T11:29:19;4.30;;;3.13;;
8435;SDS011;4255;48.730;9.156;2022-08-11T11:36:55;3.43;;;2.80;;
8435;SDS011;4255;48.730;9.156;2022-08-11T11:39:24;5.10;;;3.30;;
8435;SDS011;4255;48.730;9.156;2022-08-11T11:41:55;4.33;;;3.13;;
8435;SDS011;4255;48.730;9.156;2022-08-11T11:44:23;8.57;;;3.13;;
8435;SDS011;4255;48.730;9.156;2022-08-11T11:46:50;3.33;;;2.80;;
8435;SDS011;4255;48.730;9.156;2022-08-11T11:49:17;7.10;;;3.10;;
8435;SDS011;4255;48.730;9.156;2022-08-11T11:51:48;3.80;;;3.50;;
8435;SDS011;4255;48.730;9.156;2022-08-11T11:54:16;3.03;;;2.73;;
8435;SDS011;4255;48.730;9.156;2022-08-11T11:56:45;3.40;;;2.97;;
8435;SDS011;4255;48.730;9.156;2022-08-11T11:59:11;2.60;;;2.50;;
8435;SDS011;4255;48.730;9.156;2022-08-11T12:02:12;2.87;;;2.60;;
8435;SDS011;4255;48.730;9.156;2022-08-11T12:04:42;2.90;;;2.70;;
8435;SDS011;4255;48.730;9.156;2022-08-11T12:07:11;3.43;;;3.03;;
8435;SDS011;4255;48.730;9.156;2022-08-11T12:09:56;3.07;;;2.77;;
8435;SDS011;4255;48.730;9.156;2022-08-11T12:12:23;2.80;;;2.70;;
8435;SDS011;4255;48.730;9.156;2022-08-11T12:15:08;3.20;;;2.90;;
8435;SDS011;4255;48.730;9.156;2022-08-11T12:17:35;3.63;;;3.27;;
8435;SDS011;4255;48.730;9.156;2022-08-11T12:20:02;3.33;;;3.13;;
8435;SDS011;4255;48.730;9.156;2022-08-11T12:22:28;2.97;;;2.70;;
8435;SDS011;4255;48.730;9.156;2022-08-11T12:25:13;3.00;;;2.70;;
8435;SDS011;4255;48.730;9.156;2022-08-11T12:27:58;3.20;;;2.60;;
8435;SDS011;4255;48.730;9.156;2022-08-11T12:30:24;3.40;;;2.70;;
8435;SDS011;4255;48.730;9.156;2022-08-11T12:32:50;3.10;;;2.90;;
8435;SDS011;4255;48.730;9.156;2022-08-11T12:35:16;3.10;;;2.80;;
8435;SDS011;4255;48.730;9.156;2022-08-11T12:37:47;6.83;;;2.87;;
8435;SDS011;4255;48.730;9.156;2022-08-11T12:40:18;3.50;;;2.90;;
8435;SDS011;4255;48.730;9.156;2022-08-11T12:43:09;6.43;;;2.80;;
8435;SDS011;4255;48.730;9.156;2022-08-11T12:46:01;3.17;;;2.87;;
8435;SDS011;4255;48.730;9.156;2022-08-11T12:48:33;4.40;;;2.90;;
8435;SDS011;4255;48.730;9.156;2022-08-11T12:51:23;2.60;;;2.50;;
8435;SDS011;4255;48.730;9.156;2022-08-11T12:54:17;3.67;;;2.73;;
8435;SDS011;4255;48.730;9.156;2022-08-11T12:57:14;3.00;;;2.37;;
8435;SDS011;4255;48.730;9.156;2022-08-11T12:59:58;3.10;;;2.90;;
8435;SDS011;4255;48.730;9.156;2022-08-11T13:02:45;3.37;;;2.80;;
8435;SDS011;4255;48.730;9.156;2022-08-11T13:05:30;2.97;;;2.67;;
8435;SDS011;4255;48.730;9.156;2022-08-11T13:07:57;3.20;;;3.00;;
8435;SDS011;4255;48.730;9.156;2022-08-11T13:10:25;3.30;;;3.00;;
8435;SDS011;4255;48.730;9.156;2022-08-11T13:13:10;3.90;;;2.80;;
8435;SDS011;4255;48.730;9.156;2022-08-11T13:15:38;2.70;;;2.50;;
8435;SDS011;4255;48.730;9.156;2022-08-11T13:18:05;3.50;;;2.73;;
8435;SDS011;4255;48.730;9.156;2022-08-11T13:20:32;3.67;;;3.00;;
8435;SDS011;4255;48.730;9.156;2022-08-11T13:22:59;6.93;;;3.30;;
8435;SDS011;4255;48.730;9.156;2022-08-11T13:25:26;6.30;;;2.97;;
8435;SDS011;4255;48.730;9.156;2022-08-11T13:27:55;3.07;;;2.37;;
8435;SDS011;4255;48.730;9.156;2022-08-11T13:30:25;4.00;;;2.47;;
8435;SDS011;4255;48.730;9.156;2022-08-11T13:33:13;3.93;;;2.60;;
8435;SDS011;4255;48.730;9.156;2022-08-11T13:35:46;2.90;;;2.70;;
8435;SDS011;4255;48.730;9.156;2022-08-11T13:38:15;3.20;;;2.80;;
8435;SDS011;4255;48.730;9.156;2022-08-11T13:40:42;2.80;;;2.60;;
8435;SDS011;4255;48.730;9.156;2022-08-11T13:43:09;3.57;;;2.53;;
8435;SDS011;4255;48.730;9.156;2022-08-11T13:45:37;2.70;;;2.50;;
8435;SDS011;4255;48.730;9.156;2022-08-11T13:48:05;3.20;;;3.00;;
8435;SDS011;4255;48.730;9.156;2022-08-11T13:50:32;3.63;;;2.60;;
8435;SDS011;4255;48.730;9.156;2022-08-11T13:53:20;3.83;;;3.47;;
8435;SDS011;4255;48.730;9.156;2022-08-11T13:55:47;3.13;;;2.93;;
8435;SDS011;4255;48.730;9.156;2022-08-11T13:58:13;2.87;;;2.63;;
8435;SDS011;4255;48.730;9.156;2022-08-11T14:00:40;2.97;;;2.77;;
8435;SDS011;4255;48.730;9.156;2022-08-11T14:03:10;4.37;;;2.57;;
8435;SDS011;4255;48.730;9.156;2022-08-11T14:05:40;3.20;;;3.00;;
8435;SDS011;4255;48.730;9.156;2022-08-11T14:08:11;2.87;;;2.77;;
8435;SDS011;4255;48.730;9.156;2022-08-11T14:10:39;3.27;;;3.00;;
8435;SDS011;4255;48.730;9.156;2022-08-11T14:13:12;2.90;;;2.63;;
8435;SDS011;4255;48.730;9.156;2022-08-11T14:16:03;2.73;;;2.63;;
8435;SDS011;4255;48.730;9.156;2022-08-11T14:18:33;3.00;;;2.70;;
8435;SDS011;4255;48.730;9.156;2022-08-11T14:21:02;2.83;;;2.60;;
8435;SDS011;4255;48.730;9.156;2022-08-11T14:23:49;3.17;;;2.87;;
8435;SDS011;4255;48.730;9.156;2022-08-11T14:26:21;3.20;;;3.00;;
8435;SDS011;4255;48.730;9.156;2022-08-11T14:28:47;4.37;;;3.73;;
8435;SDS011;4255;48.730;9.156;2022-08-11T14:31:19;3.00;;;2.80;;
8435;SDS011;4255;48.730;9.156;2022-08-11T14:33:46;3.50;;;2.90;;
8435;SDS011;4255;48.730;9.156;2022-08-11T14:36:12;3.17;;;2.70;;
8435;SDS011;4255;48.730;9.156;2022-08-11T14:38:38;3.23;;;3.03;;
8435;SDS011;4255;48.730;9.156;2022-08-11T14:41:05;4.27;;;2.80;;
8435;SDS011;4255;48.730;9.156;2022-08-11T14:43:52;3.23;;;3.03;;
8435;SDS011;4255;48.730;9.156;2022-08-11T14:46:39;3.17;;;2.80;;
8435;SDS011;4255;48.730;9.156;2022-08-11T14:49:25;5.00;;;2.50;;
8435;SDS011;4255;48.730;9.156;2022-08-11T14:51:51;2.73;;;2.53;;
8435;SDS011;4255;48.730;9.156;2022-08-11T14:54:21;2.83;;;2.63;;
8435;SDS011;4255;48.730;9.156;2022-08-11T14:57:07;2.50;;;2.40;;
8435;SDS011;4255;48.730;9.156;2022-08-11T14:59:33;2.97;;;2.77;;
8435;SDS011;4255;48.730;9.156;2022-08-11T15:02:01;2.40;;;2.30;;
8435;SDS011;4255;48.730;9.156;2022-08-11T15:04:46;2.50;;;2.30;;
8435;SDS011;4255;48.730;9.156;2022-08-11T15:07:12;2.60;;;2.50;;
8435;SDS011;4255;48.730;9.156;2022-08-11T15:09:41;2.50;;;2.37;;
8435;SDS011;4255;48.730;9.156;2022-08-11T15:12:09;7.20;;;2.57;;
8435;SDS011;4255;48.730;9.156;2022-08-11T15:14:43;2.40;;;2.30;;
8435;SDS011;4255;48.730;9.156;2022-08-11T15:17:29;2.20;;;2.10;;
8435;SDS011;4255;48.730;9.156;2022-08-11T15:19:58;9.63;;;2.90;;
8435;SDS011;4255;48.730;9.156;2022-08-11T15:22:46;2.57;;;2.37;;
8435;SDS011;4255;48.730;9.156;2022-08-11T15:25:30;2.57;;;2.47;;
8435;SDS011;4255;48.730;9.156;2022-08-11T15:27:59;3.93;;;2.37;;
8435;SDS011;4255;48.730;9.156;2022-08-11T15:30:45;2.50;;;2.40;;
8435;SDS011;4255;48.730;9.156;2022-08-11T15:33:32;2.60;;;2.40;;
8435;SDS011;4255;48.730;9.156;2022-08-11T15:36:19;2.90;;;2.80;;
8435;SDS011;4255;48.730;9.156;2022-08-11T15:39:11;3.30;;;2.60;;
8435;SDS011;4255;48.730;9.156;2022-08-11T15:42:02;3.47;;;2.70;;
8435;SDS011;4255;48.730;9.156;2022-08-11T15:44:54;2.50;;;2.40;;
8435;SDS011;4255;48.730;9.156;2022-08-11T15:47:43;3.00;;;2.60;;
8435;SDS011;4255;48.730;9.156;2022-08-11T15:50:21;2.90;;;2.70;;
8435;SDS011;4255;48.730;9.156;2022-08-11T15:52:52;4.60;;;3.90;;
8435;SDS011;4255;48.730;9.156;2022-08-11T15:55:23;2.70;;;2.33;;
8435;SDS011;4255;48.730;9.156;2022-08-11T15:57:50;2.70;;;2.60;;
8435;SDS011;4255;48.730;9.156;2022-08-11T16:00:37;2.30;;;2.20;;
8435;SDS011;4255;48.730;9.156;2022-08-11T16:03:24;3.20;;;2.50;;
8435;SDS011;4255;48.730;9.156;2022-08-11T16:06:11;4.33;;;2.70;;
8435;SDS011;4255;48.730;9.156;2022-08-11T16:08:38;3.40;;;2.40;;
8435;SDS011;4255;48.730;9.156;2022-08-11T16:11:06;2.70;;;2.50;;
8435;SDS011;4255;48.730;9.156;2022-08-11T16:13:33;3.37;;;2.70;;
8435;SDS011;4255;48.730;9.156;2022-08-11T16:16:04;5.03;;;2.60;;
8435;SDS011;4255;48.730;9.156;2022-08-11T16:21:36;2.90;;;2.70;;
8435;SDS011;4255;48.730;9.156;2022-08-11T16:24:10;3.80;;;2.70;;
8435;SDS011;4255;48.730;9.156;2022-08-11T16:26:40;2.83;;;2.60;;
8435;SDS011;4255;48.730;9.156;2022-08-11T16:29:07;2.93;;;2.57;;
8435;SDS011;4255;48.730;9.156;2022-08-11T16:31:35;2.47;;;2.37;;
8435;SDS011;4255;48.730;9.156;2022-08-11T16:34:01;6.03;;;3.37;;
8435;SDS011;4255;48.730;9.156;2022-08-11T16:36:28;5.13;;;3.40;;
8435;SDS011;4255;48.730;9.156;2022-08-11T16:39:14;3.13;;;2.50;;
8435;SDS011;4255;48.730;9.156;2022-08-11T16:41:44;2.50;;;2.40;;
8435;SDS011;4255;48.730;9.156;2022-08-11T16:44:29;4.57;;;2.40;;
8435;SDS011;4255;48.730;9.156;2022-08-11T16:47:15;3.70;;;2.90;;
8435;SDS011;4255;48.730;9.156;2022-08-11T16:49:47;2.90;;;2.70;;
8435;SDS011;4255;48.730;9.156;2022-08-11T16:52:15;3.37;;;2.50;;
8435;SDS011;4255;48.730;9.156;2022-08-11T16:54:42;4.03;;;2.63;;
8435;SDS011;4255;48.730;9.156;2022-08-11T16:57:16;2.80;;;2.60;;
8435;SDS011;4255;48.730;9.156;2022-08-11T17:00:05;2.73;;;2.60;;
8435;SDS011;4255;48.730;9.156;2022-08-11T17:02:37;4.47;;;2.70;;
8435;SDS011;4255;48.730;9.156;2022-08-11T17:05:25;3.60;;;3.00;;
8435;SDS011;4255;48.730;9.156;2022-08-11T17:08:11;4.50;;;2.50;;
8435;SDS011;4255;48.730;9.156;2022-08-11T17:10:58;2.57;;;2.37;;
8435;SDS011;4255;48.730;9.156;2022-08-11T17:13:54;2.80;;;2.40;;
8435;SDS011;4255;48.730;9.156;2022-08-11T17:16:26;2.73;;;2.63;;
8435;SDS011;4255;48.730;9.156;2022-08-11T17:19:04;2.77;;;2.57;;
8435;SDS011;4255;48.730;9.156;2022-08-11T17:21:40;4.30;;;3.07;;
8435;SDS011;4255;48.730;9.156;2022-08-11T17:24:28;4.40;;;2.70;;
8435;SDS011;4255;48.730;9.156;2022-08-11T17:26:55;3.30;;;2.70;;
8435;SDS011;4255;48.730;9.156;2022-08-11T17:32:03;8.53;;;3.27;;
8435;SDS011;4255;48.730;9.156;2022-08-11T17:34:49;3.00;;;2.50;;
8435;SDS011;4255;48.730;9.156;2022-08-11T17:37:36;2.93;;;2.73;;
8435;SDS011;4255;48.730;9.156;2022-08-11T17:40:04;3.20;;;2.50;;
8435;SDS011;4255;48.730;9.156;2022-08-11T17:42:32;2.80;;;2.70;;
8435;SDS011;4255;48.730;9.156;2022-08-11T17:45:18;5.30;;;2.57;;
8435;SDS011;4255;48.730;9.156;2022-08-11T17:48:04;8.43;;;2.70;;
8435;SDS011;4255;48.730;9.156;2022-08-11T17:51:10;2.83;;;2.50;;
8435;SDS011;4255;48.730;9.156;2022-08-11T17:53:58;3.17;;;2.80;;
8435;SDS011;4255;48.730;9.156;2022-08-11T17:56:43;2.20;;;2.10;;
8435;SDS011;4255;48.730;9.156;2022-08-11T17:59:29;2.80;;;2.60;;
8435;SDS011;4255;48.730;9.156;2022-08-11T18:02:16;2.90;;;2.67;;
8435;SDS011;4255;48.730;9.156;2022-08-11T18:05:04;2.67;;;2.47;;
8435;SDS011;4255;48.730;9.156;2022-08-11T18:07:30;3.03;;;2.90;;
8435;SDS011;4255;48.730;9.156;2022-08-11T18:10:17;3.07;;;2.83;;
8435;SDS011;4255;48.730;9.156;2022-08-11T18:13:02;6.50;;;3.03;;
8435;SDS011;4255;48.730;9.156;2022-08-11T18:15:48;3.77;;;3.00;;
8435;SDS011;4255;48.730;9.156;2022-08-11T18:18:33;3.20;;;2.90;;
8435;SDS011;4255;48.730;9.156;2022-08-11T18:21:17;3.20;;;3.00;;
8435;SDS011;4255;48.730;9.156;2022-08-11T18:24:08;3.00;;;2.80;;
8435;SDS011;4255;48.730;9.156;2022-08-11T18:26:56;6.33;;;3.03;;
8435;SDS011;4255;48.730;9.156;2022-08-11T18:29:42;3.50;;;3.20;;
8435;SDS011;4255;48.730;9.156;2022-08-11T18:32:31;8.03;;;3.20;;
8435;SDS011;4255;48.730;9.156;2022-08-11T18:35:17;3.00;;;2.80;;
8435;SDS011;4255;48.730;9.156;2022-08-11T18:38:02;5.47;;;3.13;;
8435;SDS011;4255;48.730;9.156;2022-08-11T18:40:49;2.93;;;2.73;;
8435;SDS011;4255;48.730;9.156;2022-08-11T18:43:36;2.90;;;2.70;;
8435;SDS011;4255;48.730;9.156;2022-08-11T18:46:25;4.97;;;3.00;;
8435;SDS011;4255;48.730;9.156;2022-08-11T18:49:17;4.53;;;2.77;;
8435;SDS011;4255;48.730;9.156;2022-08-11T18:52:06;3.43;;;3.13;;
8435;SDS011;4255;48.730;9.156;2022-08-11T18:54:52;6.47;;;3.43;;
8435;SDS011;4255;48.730;9.156;2022-08-11T18:57:40;5.47;;;3.20;;
8435;SDS011;4255;48.730;9.156;2022-08-11T19:00:26;4.30;;;3.90;;
8435;SDS011;4255;48.730;9.156;2022-08-11T19:03:11;3.80;;;3.37;;
8435;SDS011;4255;48.730;9.156;2022-08-11T19:06:01;3.77;;;3.40;;
8435;SDS011;4255;48.730;9.156;2022-08-11T19:08:51;3.93;;;3.63;;
8435;SDS011;4255;48.730;9.156;2022-08-11T19:11:39;4.87;;;3.30;;
8435;SDS011;4255;48.730;9.156;2022-08-11T19:14:24;3.90;;;2.83;;
8435;SDS011;4255;48.730;9.156;2022-08-11T19:17:10;5.40;;;3.10;;
8435;SDS011;4255;48.730;9.156;2022-08-11T19:19:57;3.30;;;3.10;;
8435;SDS011;4255;48.730;9.156;2022-08-11T19:22:42;3.50;;;3.20;;
8435;SDS011;4255;48.730;9.156;2022-08-11T19:25:29;4.37;;;3.87;;
8435;SDS011;4255;48.730;9.156;2022-08-11T19:28:15;6.13;;;3.27;;
8435;SDS011;4255;48.730;9.156;2022-08-11T19:31:02;3.30;;;2.90;;
8435;SDS011;4255;48.730;9.156;2022-08-11T19:33:47;4.43;;;2.90;;
8435;SDS011;4255;48.730;9.156;2022-08-11T19:36:33;4.40;;;3.00;;
8435;SDS011;4255;48.730;9.156;2022-08-11T19:39:18;3.67;;;3.40;;
8435;SDS011;4255;48.730;9.156;2022-08-11T19:42:06;6.90;;;3.60;;
8435;SDS011;4255;48.730;9.156;2022-08-11T19:44:52;4.13;;;3.83;;
8435;SDS011;4255;48.730;9.156;2022-08-11T19:47:37;4.30;;;3.90;;
8435;SDS011;4255;48.730;9.156;2022-08-11T19:50:22;4.90;;;3.30;;
8435;SDS011;4255;48.730;9.156;2022-08-11T19:53:07;4.90;;;4.23;;
8435;SDS011;4255;48.730;9.156;2022-08-11T19:55:52;6.20;;;3.83;;
8435;SDS011;4255;48.730;9.156;2022-08-11T19:58:37;4.00;;;3.40;;
8435;SDS011;4255;48.730;9.156;2022-08-11T20:01:22;3.50;;;3.20;;